createdAt,value
2018-01-16T00:00:15.202Z,980.94
2018-01-16T00:01:15.198Z,980.99
2018-01-16T00:02:15.192Z,980.97
2018-01-16T00:03:15.184Z,980.99
2018-01-16T00:04:15.181Z,980.99
2018-01-16T00:05:15.176Z,981.04
2018-01-16T00:06:15.170Z,981.04
2018-01-16T00:07:15.164Z,981.10
2018-01-16T00:08:15.159Z,981.09
2018-01-16T00:09:15.155Z,981.04
2018-01-16T00:10:15.151Z,981.09
2018-01-16T00:11:15.143Z,981.05
2018-01-16T00:12:15.138Z,981.10
2018-01-16T00:13:15.134Z,981.09
2018-01-16T00:14:15.129Z,981.12
2018-01-16T00:15:15.125Z,981.15
2018-01-16T00:16:15.118Z,981.15
2018-01-16T00:17:15.112Z,981.16
2018-01-16T00:18:15.108Z,981.14
2018-01-16T00:19:15.101Z,981.21
2018-01-16T00:20:15.096Z,981.21
2018-01-16T00:21:15.093Z,981.25
2018-01-16T00:22:15.087Z,981.30
2018-01-16T00:23:15.080Z,981.31
2018-01-16T00:24:15.077Z,981.34
2018-01-16T00:25:15.072Z,981.33
2018-01-16T00:26:15.067Z,981.29
2018-01-16T00:27:15.061Z,981.29
2018-01-16T00:28:15.056Z,981.34
2018-01-16T00:29:15.050Z,981.28
2018-01-16T00:30:15.045Z,981.32
2018-01-16T00:31:15.039Z,981.33
2018-01-16T00:32:15.034Z,981.32
2018-01-16T00:33:15.029Z,981.29
2018-01-16T00:34:15.024Z,981.31
2018-01-16T00:35:15.020Z,981.33
2018-01-16T00:36:15.014Z,981.26
2018-01-16T00:37:15.009Z,981.33
2018-01-16T00:38:15.004Z,981.31
2018-01-16T00:39:14.997Z,981.37
2018-01-16T00:40:14.993Z,981.38
2018-01-16T00:41:14.990Z,981.37
2018-01-16T00:42:14.982Z,981.43
2018-01-16T00:43:14.976Z,981.47
2018-01-16T00:44:14.971Z,981.45
2018-01-16T00:45:14.968Z,981.39
2018-01-16T00:46:14.962Z,981.34
2018-01-16T00:47:14.957Z,981.30
2018-01-16T00:48:14.953Z,981.30
2018-01-16T00:49:14.946Z,981.44
2018-01-16T00:50:14.941Z,981.38
2018-01-16T00:51:14.935Z,981.40
2018-01-16T00:52:14.930Z,981.42
2018-01-16T00:53:14.926Z,981.48
2018-01-16T00:54:14.921Z,981.47
2018-01-16T00:55:14.918Z,981.55
2018-01-16T00:56:14.909Z,981.61
2018-01-16T00:57:14.904Z,981.61
2018-01-16T00:58:14.900Z,981.60
2018-01-16T00:59:14.894Z,981.64
2018-01-16T01:00:14.892Z,981.57
2018-01-16T01:01:14.883Z,981.68
2018-01-16T01:02:14.877Z,981.66
2018-01-16T01:03:14.871Z,981.74
2018-01-16T01:04:14.866Z,981.63
2018-01-16T01:05:14.861Z,981.70
2018-01-16T01:06:14.857Z,981.71
2018-01-16T01:07:14.851Z,981.72
2018-01-16T01:08:14.846Z,981.76
2018-01-16T01:09:14.841Z,981.70
2018-01-16T01:10:14.836Z,981.76
2018-01-16T01:11:14.830Z,981.82
2018-01-16T01:12:14.824Z,981.77
2018-01-16T01:13:14.819Z,981.77
2018-01-16T01:14:14.815Z,981.89
2018-01-16T01:15:14.807Z,981.72
2018-01-16T01:16:14.802Z,981.73
2018-01-16T01:17:14.797Z,981.73
2018-01-16T01:18:14.792Z,981.65
2018-01-16T01:19:14.786Z,981.77
2018-01-16T01:20:14.781Z,981.73
2018-01-16T01:21:14.776Z,981.74
2018-01-16T01:22:14.771Z,981.79
2018-01-16T01:23:14.765Z,981.80
2018-01-16T01:24:14.760Z,981.76
2018-01-16T01:25:14.756Z,981.77
2018-01-16T01:26:14.749Z,981.71
2018-01-16T01:27:14.744Z,981.75
2018-01-16T01:28:14.741Z,981.70
2018-01-16T01:29:14.732Z,981.72
2018-01-16T01:30:14.728Z,981.82
2018-01-16T01:31:14.721Z,981.78
2018-01-16T01:32:14.717Z,981.77
2018-01-16T01:33:14.711Z,981.78
2018-01-16T01:34:14.706Z,981.74
2018-01-16T01:35:14.701Z,981.78
2018-01-16T01:36:14.696Z,981.79
2018-01-16T01:37:14.690Z,981.91
2018-01-16T01:38:14.685Z,981.73
2018-01-16T01:39:14.678Z,981.70
2018-01-16T01:40:14.673Z,981.73
2018-01-16T01:41:14.668Z,981.67
2018-01-16T01:42:14.663Z,981.67
2018-01-16T01:43:14.656Z,981.53
2018-01-16T01:44:14.650Z,981.52
2018-01-16T01:45:14.647Z,981.53
2018-01-16T01:46:14.641Z,981.54
2018-01-16T01:47:14.636Z,981.61
2018-01-16T01:48:14.630Z,981.62
2018-01-16T01:49:14.626Z,981.69
2018-01-16T01:50:14.620Z,981.67
2018-01-16T01:51:14.614Z,981.65
2018-01-16T01:52:14.609Z,981.65
2018-01-16T01:53:14.603Z,981.58
2018-01-16T01:54:14.598Z,981.58
2018-01-16T01:55:14.591Z,981.59
2018-01-16T01:56:14.588Z,981.55
2018-01-16T01:57:14.582Z,981.56
2018-01-16T01:58:14.576Z,981.47
2018-01-16T01:59:14.569Z,981.49
2018-01-16T02:00:14.566Z,981.52
2018-01-16T02:01:14.559Z,981.47
2018-01-16T02:02:14.555Z,981.49
2018-01-16T02:03:14.549Z,981.52
2018-01-16T02:04:14.543Z,981.45
2018-01-16T02:05:14.540Z,981.51
2018-01-16T02:06:14.533Z,981.54
2018-01-16T02:07:14.527Z,981.49
2018-01-16T02:08:14.521Z,981.52
2018-01-16T02:09:14.517Z,981.49
2018-01-16T02:10:14.511Z,981.50
2018-01-16T02:11:14.506Z,981.55
2018-01-16T02:12:14.500Z,981.52
2018-01-16T02:13:14.494Z,981.46
2018-01-16T02:14:14.490Z,981.37
2018-01-16T02:15:14.483Z,981.38
2018-01-16T02:16:14.479Z,981.34
2018-01-16T02:17:14.474Z,981.27
2018-01-16T02:18:14.468Z,981.32
2018-01-16T02:19:14.461Z,981.34
2018-01-16T02:20:14.456Z,981.23
2018-01-16T02:21:14.450Z,981.23
2018-01-16T02:22:14.445Z,981.32
2018-01-16T02:23:14.439Z,981.29
2018-01-16T02:24:14.434Z,981.30
2018-01-16T02:25:14.432Z,981.21
2018-01-16T02:26:14.425Z,981.25
2018-01-16T02:27:14.418Z,981.24
2018-01-16T02:28:14.413Z,981.23
2018-01-16T02:29:14.408Z,981.19
2018-01-16T02:30:14.403Z,981.21
2018-01-16T02:31:14.396Z,981.20
2018-01-16T02:32:14.391Z,981.27
2018-01-16T02:33:14.386Z,981.29
2018-01-16T02:34:14.379Z,981.18
2018-01-16T02:35:14.374Z,981.20
2018-01-16T02:36:14.369Z,981.23
2018-01-16T02:37:14.365Z,981.16
2018-01-16T02:38:14.357Z,981.18
2018-01-16T02:39:14.352Z,981.15
2018-01-16T02:40:14.346Z,981.11
2018-01-16T02:41:14.379Z,981.06
2018-01-16T02:42:14.337Z,981.07
2018-01-16T02:43:14.330Z,981.00
2018-01-16T02:44:14.325Z,981.01
2018-01-16T02:45:14.320Z,980.98
2018-01-16T02:46:14.313Z,980.98
2018-01-16T02:47:14.307Z,980.99
2018-01-16T02:48:14.302Z,980.94
2018-01-16T02:49:14.298Z,980.93
2018-01-16T02:50:14.292Z,980.91
2018-01-16T02:51:14.285Z,980.86
2018-01-16T02:52:14.280Z,980.83
2018-01-16T02:53:14.275Z,980.82
2018-01-16T02:54:14.270Z,980.82
2018-01-16T02:55:14.262Z,980.88
2018-01-16T02:56:14.257Z,980.86
2018-01-16T02:57:14.253Z,980.85
2018-01-16T02:58:14.246Z,980.79
2018-01-16T02:59:14.242Z,980.82
2018-01-16T03:00:14.236Z,980.78
2018-01-16T03:01:14.231Z,980.81
2018-01-16T03:02:14.224Z,980.80
2018-01-16T03:03:14.220Z,980.79
2018-01-16T03:04:14.213Z,980.82
2018-01-16T03:05:14.207Z,980.80
2018-01-16T03:06:14.202Z,980.78
2018-01-16T03:07:14.196Z,980.73
2018-01-16T03:08:14.194Z,980.70
2018-01-16T03:09:14.185Z,980.71
2018-01-16T03:10:14.180Z,980.69
2018-01-16T03:11:14.174Z,980.72
2018-01-16T03:12:14.169Z,980.69
2018-01-16T03:13:14.163Z,980.69
2018-01-16T03:14:14.158Z,980.66
2018-01-16T03:15:14.151Z,980.67
2018-01-16T03:16:14.146Z,980.61
2018-01-16T03:17:14.141Z,980.57
2018-01-16T03:18:14.135Z,980.47
2018-01-16T03:19:14.129Z,980.50
2018-01-16T03:20:14.123Z,980.46
2018-01-16T03:21:14.118Z,980.48
2018-01-16T03:22:14.113Z,980.51
2018-01-16T03:23:14.106Z,980.55
2018-01-16T03:24:14.101Z,980.51
2018-01-16T03:25:14.097Z,980.51
2018-01-16T03:26:14.090Z,980.53
2018-01-16T03:27:14.085Z,980.56
2018-01-16T03:28:14.077Z,980.51
2018-01-16T03:29:14.074Z,980.60
2018-01-16T03:30:14.074Z,980.57
2018-01-16T03:31:14.061Z,980.56
2018-01-16T03:32:14.056Z,980.51
2018-01-16T03:33:14.051Z,980.51
2018-01-16T03:34:14.045Z,980.49
2018-01-16T03:35:14.041Z,980.49
2018-01-16T03:36:14.033Z,980.46
2018-01-16T03:37:14.027Z,980.43
2018-01-16T03:38:14.021Z,980.44
2018-01-16T03:39:14.017Z,980.44
2018-01-16T03:40:14.018Z,980.46
2018-01-16T03:41:14.004Z,980.42
2018-01-16T03:42:14.001Z,980.40
2018-01-16T03:43:13.993Z,980.38
2018-01-16T03:44:13.987Z,980.42
2018-01-16T03:45:13.984Z,980.38
2018-01-16T03:46:13.976Z,980.35
2018-01-16T03:47:13.970Z,980.29
2018-01-16T03:48:13.965Z,980.27
2018-01-16T03:49:13.960Z,980.21
2018-01-16T03:50:13.954Z,980.22
2018-01-16T03:51:13.948Z,980.21
2018-01-16T03:52:13.941Z,980.23
2018-01-16T03:53:13.936Z,980.32
2018-01-16T03:54:13.932Z,980.33
2018-01-16T03:55:13.924Z,980.21
2018-01-16T03:56:13.919Z,980.21
2018-01-16T03:57:13.952Z,980.24
2018-01-16T03:58:13.909Z,980.24
2018-01-16T03:59:13.903Z,980.26
2018-01-16T04:00:13.896Z,980.23
2018-01-16T04:01:13.890Z,980.21
2018-01-16T04:02:13.885Z,980.24
2018-01-16T04:03:13.879Z,980.23
2018-01-16T04:04:13.874Z,980.14
2018-01-16T04:05:13.867Z,980.15
2018-01-16T04:06:13.863Z,980.14
2018-01-16T04:07:13.856Z,980.06
2018-01-16T04:08:13.850Z,979.99
2018-01-16T04:09:13.845Z,979.96
2018-01-16T04:10:13.840Z,979.98
2018-01-16T04:11:13.832Z,979.95
2018-01-16T04:12:13.829Z,979.95
2018-01-16T04:13:13.821Z,979.95
2018-01-16T04:14:13.816Z,979.94
2018-01-16T04:15:13.811Z,979.88
2018-01-16T04:16:13.804Z,979.85
2018-01-16T04:17:13.800Z,979.86
2018-01-16T04:18:13.794Z,979.92
2018-01-16T04:19:13.788Z,979.95
2018-01-16T04:20:13.784Z,979.91
2018-01-16T04:21:13.776Z,980.03
2018-01-16T04:22:13.772Z,979.93
2018-01-16T04:23:13.766Z,979.92
2018-01-16T04:24:13.760Z,979.86
2018-01-16T04:25:13.754Z,979.90
2018-01-16T04:26:13.748Z,979.86
2018-01-16T04:27:13.742Z,979.83
2018-01-16T04:28:13.737Z,979.92
2018-01-16T04:29:13.730Z,979.96
2018-01-16T04:30:13.727Z,979.87
2018-01-16T04:31:13.719Z,979.83
2018-01-16T04:32:13.712Z,979.82
2018-01-16T04:33:13.708Z,979.84
2018-01-16T04:34:13.702Z,979.74
2018-01-16T04:35:13.695Z,979.70
2018-01-16T04:36:13.691Z,979.71
2018-01-16T04:37:13.685Z,979.76
2018-01-16T04:38:13.679Z,979.73
2018-01-16T04:39:13.673Z,979.67
2018-01-16T04:40:13.666Z,979.68
2018-01-16T04:41:13.662Z,979.65
2018-01-16T04:42:13.655Z,979.72
2018-01-16T04:43:13.649Z,979.63
2018-01-16T04:44:13.643Z,979.61
2018-01-16T04:45:13.637Z,979.54
2018-01-16T04:46:13.632Z,979.59
2018-01-16T04:47:13.626Z,979.58
2018-01-16T04:48:13.619Z,979.53
2018-01-16T04:49:13.613Z,979.58
2018-01-16T04:50:13.608Z,979.54
2018-01-16T04:51:13.601Z,979.51
2018-01-16T04:52:13.596Z,979.49
2018-01-16T04:53:13.590Z,979.50
2018-01-16T04:54:13.584Z,979.59
2018-01-16T04:55:13.578Z,979.45
2018-01-16T04:56:13.572Z,979.55
2018-01-16T04:57:13.568Z,979.45
2018-01-16T04:58:13.561Z,979.45
2018-01-16T04:59:13.554Z,979.49
2018-01-16T05:00:13.549Z,979.53
2018-01-16T05:01:13.544Z,979.55
2018-01-16T05:02:13.537Z,979.48
2018-01-16T05:03:13.531Z,979.53
2018-01-16T05:04:13.526Z,979.58
2018-01-16T05:05:13.520Z,979.55
2018-01-16T05:06:13.513Z,979.51
2018-01-16T05:07:13.507Z,979.53
2018-01-16T05:08:13.505Z,979.49
2018-01-16T05:09:13.495Z,979.42
2018-01-16T05:10:13.491Z,979.42
2018-01-16T05:11:13.483Z,979.47
2018-01-16T05:12:13.479Z,979.46
2018-01-16T05:13:13.472Z,979.47
2018-01-16T05:14:13.467Z,979.38
2018-01-16T05:15:13.460Z,979.35
2018-01-16T05:16:13.456Z,979.34
2018-01-16T05:17:13.450Z,979.28
2018-01-16T05:18:13.444Z,979.39
2018-01-16T05:19:13.437Z,979.27
2018-01-16T05:20:13.431Z,979.35
2018-01-16T05:21:13.426Z,979.34
2018-01-16T05:22:13.420Z,979.35
2018-01-16T05:23:13.414Z,979.33
2018-01-16T05:24:13.409Z,979.42
2018-01-16T05:25:13.403Z,979.36
2018-01-16T05:26:13.397Z,979.30
2018-01-16T05:27:13.391Z,979.34
2018-01-16T05:28:13.384Z,979.39
2018-01-16T05:29:13.379Z,979.37
2018-01-16T05:30:13.373Z,979.39
2018-01-16T05:31:13.367Z,979.39
2018-01-16T05:32:13.362Z,979.43
2018-01-16T05:33:13.356Z,979.37
2018-01-16T05:34:13.350Z,979.42
2018-01-16T05:35:13.344Z,979.37
2018-01-16T05:36:13.340Z,979.37
2018-01-16T05:37:13.335Z,979.31
2018-01-16T05:38:13.327Z,979.31
2018-01-16T05:39:13.321Z,979.32
2018-01-16T05:40:13.314Z,979.36
2018-01-16T05:41:13.309Z,979.33
2018-01-16T05:42:13.304Z,979.27
2018-01-16T05:43:13.297Z,979.35
2018-01-16T05:44:13.292Z,979.26
2018-01-16T05:45:13.288Z,979.29
2018-01-16T05:46:13.280Z,979.24
2018-01-16T05:47:13.274Z,979.30
2018-01-16T05:48:13.267Z,979.28
2018-01-16T05:49:13.262Z,979.25
2018-01-16T05:50:13.256Z,979.32
2018-01-16T05:51:13.251Z,979.29
2018-01-16T05:52:13.246Z,979.26
2018-01-16T05:53:13.238Z,979.30
2018-01-16T05:54:13.234Z,979.27
2018-01-16T05:55:13.228Z,979.35
2018-01-16T05:56:13.221Z,979.30
2018-01-16T05:57:13.216Z,979.41
2018-01-16T05:58:13.211Z,979.39
2018-01-16T05:59:13.204Z,979.29
2018-01-16T06:00:13.198Z,979.46
2018-01-16T06:01:13.193Z,979.37
2018-01-16T06:02:13.187Z,979.42
2018-01-16T06:03:13.181Z,979.38
2018-01-16T06:04:13.176Z,979.34
2018-01-16T06:05:13.169Z,979.31
2018-01-16T06:06:13.164Z,979.37
2018-01-16T06:07:13.157Z,979.33
2018-01-16T06:08:13.150Z,979.29
2018-01-16T06:09:13.146Z,979.32
2018-01-16T06:10:13.141Z,979.35
2018-01-16T06:11:13.134Z,979.38
2018-01-16T06:12:13.173Z,979.31
2018-01-16T06:13:13.123Z,979.39
2018-01-16T06:14:13.122Z,979.36
2018-01-16T06:15:13.111Z,979.42
2018-01-16T06:16:13.108Z,979.35
2018-01-16T06:17:13.100Z,979.41
2018-01-16T06:18:13.096Z,979.42
2018-01-16T06:19:13.088Z,979.44
2018-01-16T06:20:13.083Z,979.47
2018-01-16T06:21:13.079Z,979.47
2018-01-16T06:22:13.072Z,979.41
2018-01-16T06:23:13.065Z,979.44
2018-01-16T06:24:13.060Z,979.47
2018-01-16T06:25:13.059Z,979.40
2018-01-16T06:26:13.049Z,979.40
2018-01-16T06:27:13.042Z,979.30
2018-01-16T06:28:13.039Z,979.29
2018-01-16T06:29:13.033Z,979.22
2018-01-16T06:30:13.028Z,979.36
2018-01-16T06:31:13.020Z,979.27
2018-01-16T06:32:13.015Z,979.26
2018-01-16T06:33:13.009Z,979.28
2018-01-16T06:34:13.005Z,979.31
2018-01-16T06:35:12.997Z,979.32
2018-01-16T06:36:12.991Z,979.33
2018-01-16T06:37:12.987Z,979.30
2018-01-16T06:38:12.981Z,979.34
2018-01-16T06:39:12.975Z,979.37
2018-01-16T06:40:12.967Z,979.29
2018-01-16T06:41:12.963Z,979.44
2018-01-16T06:42:12.958Z,979.29
2018-01-16T06:43:12.950Z,979.50
2018-01-16T06:44:12.945Z,979.40
2018-01-16T06:45:12.941Z,979.40
2018-01-16T06:46:12.936Z,979.51
2018-01-16T06:47:12.929Z,979.43
2018-01-16T06:48:12.923Z,979.41
2018-01-16T06:49:12.918Z,979.51
2018-01-16T06:50:12.913Z,979.51
2018-01-16T06:51:12.906Z,979.48
2018-01-16T06:52:12.900Z,979.49
2018-01-16T06:53:12.895Z,979.46
2018-01-16T06:54:12.890Z,979.57
2018-01-16T06:55:12.883Z,979.50
2018-01-16T06:56:12.877Z,979.48
2018-01-16T06:57:12.873Z,979.51
2018-01-16T06:58:12.866Z,979.62
2018-01-16T06:59:12.863Z,979.50
2018-01-16T07:00:12.855Z,979.57
2018-01-16T07:01:12.850Z,979.57
2018-01-16T07:02:12.844Z,979.54
2018-01-16T07:03:12.837Z,979.52
2018-01-16T07:04:12.834Z,979.54
2018-01-16T07:05:12.853Z,979.52
2018-01-16T07:06:12.822Z,979.46
2018-01-16T07:07:12.816Z,979.52
2018-01-16T07:08:12.811Z,979.49
2018-01-16T07:09:12.804Z,979.51
2018-01-16T07:10:12.799Z,979.52
2018-01-16T07:11:12.793Z,979.57
2018-01-16T07:12:12.787Z,979.52
2018-01-16T07:13:12.781Z,979.48
2018-01-16T07:14:12.775Z,979.56
2018-01-16T07:15:12.769Z,979.50
2018-01-16T07:16:12.770Z,979.51
2018-01-16T07:17:12.758Z,979.54
2018-01-16T07:18:12.752Z,979.56
2018-01-16T07:19:12.745Z,979.57
2018-01-16T07:20:12.741Z,979.57
2018-01-16T07:21:12.737Z,979.55
2018-01-16T07:22:12.730Z,979.50
2018-01-16T07:23:12.724Z,979.54
2018-01-16T07:24:12.719Z,979.57
2018-01-16T07:25:12.711Z,979.53
2018-01-16T07:26:12.706Z,979.49
2018-01-16T07:27:12.701Z,979.55
2018-01-16T07:28:12.695Z,979.55
2018-01-16T07:29:12.689Z,979.62
2018-01-16T07:30:12.684Z,979.59
2018-01-16T07:31:12.676Z,979.57
2018-01-16T07:32:12.672Z,979.59
2018-01-16T07:33:12.666Z,979.57
2018-01-16T07:34:12.661Z,979.51
2018-01-16T07:35:12.654Z,979.57
2018-01-16T07:36:12.648Z,979.58
2018-01-16T07:37:12.644Z,979.61
2018-01-16T07:38:12.638Z,979.53
2018-01-16T07:39:12.632Z,979.58
2018-01-16T07:40:12.628Z,979.55
2018-01-16T07:41:12.621Z,979.59
2018-01-16T07:42:12.614Z,979.58
2018-01-16T07:43:12.609Z,979.64
2018-01-16T07:44:12.602Z,979.63
2018-01-16T07:45:12.596Z,979.65
2018-01-16T07:46:12.591Z,979.62
2018-01-16T07:47:12.585Z,979.59
2018-01-16T07:48:12.579Z,979.64
2018-01-16T07:49:12.573Z,979.62
2018-01-16T07:50:12.568Z,979.61
2018-01-16T07:51:12.561Z,979.61
2018-01-16T07:52:12.555Z,979.74
2018-01-16T07:53:12.552Z,979.63
2018-01-16T07:54:12.544Z,979.62
2018-01-16T07:55:12.539Z,979.64
2018-01-16T07:56:12.532Z,979.69
2018-01-16T07:57:12.526Z,979.67
2018-01-16T07:58:12.522Z,979.74
2018-01-16T07:59:12.517Z,979.64
2018-01-16T08:00:12.509Z,979.59
2018-01-16T08:01:12.505Z,979.50
2018-01-16T08:02:12.498Z,979.42
2018-01-16T08:03:12.491Z,979.50
2018-01-16T08:04:12.486Z,979.56
2018-01-16T08:05:12.480Z,979.65
2018-01-16T08:06:12.474Z,979.68
2018-01-16T08:07:12.468Z,979.77
2018-01-16T08:08:12.461Z,979.93
2018-01-16T08:09:12.456Z,979.90
2018-01-16T08:10:12.451Z,980.00
2018-01-16T08:11:12.443Z,979.94
2018-01-16T08:12:12.438Z,980.04
2018-01-16T08:13:12.432Z,979.94
2018-01-16T08:14:12.426Z,979.94
2018-01-16T08:15:12.425Z,980.11
2018-01-16T08:16:12.414Z,979.97
2018-01-16T08:17:12.408Z,980.05
2018-01-16T08:18:12.402Z,980.10
2018-01-16T08:19:12.394Z,980.16
2018-01-16T08:20:12.389Z,980.13
2018-01-16T08:21:12.385Z,980.15
2018-01-16T08:22:12.378Z,980.18
2018-01-16T08:23:12.372Z,980.22
2018-01-16T08:24:12.365Z,980.10
2018-01-16T08:25:12.358Z,980.21
2018-01-16T08:26:12.351Z,980.13
2018-01-16T08:27:12.345Z,980.04
2018-01-16T08:28:12.339Z,980.02
2018-01-16T08:29:12.332Z,979.99
2018-01-16T08:30:12.326Z,979.95
2018-01-16T08:31:12.320Z,979.82
2018-01-16T08:32:12.312Z,979.78
2018-01-16T08:33:12.305Z,979.79
2018-01-16T08:34:12.298Z,979.77
2018-01-16T08:35:12.293Z,979.66
2018-01-16T08:36:12.285Z,979.66
2018-01-16T08:37:12.278Z,979.69
2018-01-16T08:38:12.272Z,979.57
2018-01-16T08:39:12.264Z,979.52
2018-01-16T08:40:12.258Z,979.56
2018-01-16T08:41:12.252Z,979.52
2018-01-16T08:42:12.245Z,979.57
2018-01-16T08:43:12.236Z,979.61
2018-01-16T08:44:12.232Z,979.65
2018-01-16T08:45:12.223Z,979.73
2018-01-16T08:46:12.217Z,979.75
2018-01-16T08:47:12.210Z,979.76
2018-01-16T08:48:12.202Z,979.74
2018-01-16T08:49:12.196Z,979.78
2018-01-16T08:50:12.188Z,979.71
2018-01-16T08:51:12.181Z,979.72
2018-01-16T08:52:12.174Z,979.82
2018-01-16T08:53:12.168Z,979.81
2018-01-16T08:54:12.161Z,979.79
2018-01-16T08:55:12.153Z,979.81
2018-01-16T08:56:12.148Z,979.73
2018-01-16T08:57:12.141Z,979.72
2018-01-16T08:58:12.133Z,979.65
2018-01-16T08:59:12.126Z,979.69
2018-01-16T09:00:12.118Z,979.56
2018-01-16T09:01:12.113Z,979.59
2018-01-16T09:02:12.105Z,979.57
2018-01-16T09:03:12.098Z,979.57
2018-01-16T09:04:12.091Z,979.65
2018-01-16T09:05:12.085Z,979.62
2018-01-16T09:06:12.077Z,979.64
2018-01-16T09:07:12.070Z,979.68
2018-01-16T09:08:12.063Z,979.67
2018-01-16T09:09:12.057Z,979.76
2018-01-16T09:10:12.050Z,979.76
2018-01-16T09:11:12.041Z,979.83
2018-01-16T09:12:12.035Z,979.89
2018-01-16T09:13:12.028Z,979.92
2018-01-16T09:14:12.022Z,979.89
2018-01-16T09:15:12.013Z,979.84
2018-01-16T09:16:12.006Z,979.91
2018-01-16T09:17:12.001Z,979.84
2018-01-16T09:18:11.993Z,979.89
2018-01-16T09:19:11.985Z,979.79
2018-01-16T09:20:11.979Z,979.84
2018-01-16T09:21:11.970Z,979.75
2018-01-16T09:22:11.965Z,979.80
2018-01-16T09:23:11.957Z,979.83
2018-01-16T09:24:11.949Z,979.76
2018-01-16T09:25:11.943Z,979.85
2018-01-16T09:26:11.935Z,979.91
2018-01-16T09:27:11.927Z,979.86
2018-01-16T09:28:11.920Z,979.79
2018-01-16T09:29:11.915Z,979.85
2018-01-16T09:30:11.909Z,979.78
2018-01-16T09:31:11.897Z,979.84
2018-01-16T09:32:11.890Z,979.82
2018-01-16T09:33:11.886Z,979.97
2018-01-16T09:34:11.876Z,979.96
2018-01-16T09:35:11.868Z,980.07
2018-01-16T09:36:11.860Z,980.28
2018-01-16T09:37:11.854Z,980.25
2018-01-16T09:38:11.846Z,980.26
2018-01-16T09:39:11.837Z,980.35
2018-01-16T09:40:11.830Z,980.29
2018-01-16T09:41:11.823Z,980.35
2018-01-16T09:42:11.816Z,980.40
2018-01-16T09:43:11.807Z,980.37
2018-01-16T09:44:11.802Z,980.41
2018-01-16T09:45:11.795Z,980.42
2018-01-16T09:46:11.786Z,980.43
2018-01-16T09:47:11.778Z,980.47
2018-01-16T09:48:11.771Z,980.39
2018-01-16T09:49:11.761Z,980.31
2018-01-16T09:50:11.756Z,980.04
2018-01-16T09:51:11.747Z,979.94
2018-01-16T09:52:11.738Z,980.03
2018-01-16T09:53:11.733Z,979.97
2018-01-16T09:54:11.730Z,979.92
2018-01-16T09:55:11.715Z,979.90
2018-01-16T09:56:11.709Z,980.10
2018-01-16T09:57:11.701Z,980.07
2018-01-16T09:58:11.692Z,980.07
2018-01-16T09:59:11.687Z,980.03
2018-01-16T10:00:11.679Z,980.01
2018-01-16T10:01:11.671Z,979.98
2018-01-16T10:02:11.666Z,979.96
2018-01-16T10:03:11.653Z,979.89
2018-01-16T10:04:11.646Z,979.96
2018-01-16T10:05:11.641Z,979.98
2018-01-16T10:06:11.631Z,979.99
2018-01-16T10:07:11.623Z,980.04
2018-01-16T10:08:11.615Z,980.06
2018-01-16T10:09:11.608Z,980.06
2018-01-16T10:10:11.603Z,980.05
2018-01-16T10:11:11.592Z,980.06
2018-01-16T10:12:11.588Z,979.99
2018-01-16T10:13:11.580Z,980.08
2018-01-16T10:14:11.572Z,980.09
2018-01-16T10:15:11.562Z,980.17
2018-01-16T10:16:11.555Z,980.24
2018-01-16T10:17:11.551Z,980.33
2018-01-16T10:18:11.542Z,980.37
2018-01-16T10:19:11.533Z,980.38
2018-01-16T10:20:11.525Z,980.47
2018-01-16T10:21:11.518Z,980.31
2018-01-16T10:22:11.513Z,980.34
2018-01-16T10:23:11.504Z,980.31
2018-01-16T10:24:11.496Z,980.22
2018-01-16T10:25:11.490Z,980.30
2018-01-16T10:26:11.482Z,980.33
2018-01-16T10:27:11.475Z,980.44
2018-01-16T10:28:11.468Z,980.46
2018-01-16T10:29:11.461Z,980.46
2018-01-16T10:30:11.455Z,980.53
2018-01-16T10:31:11.447Z,980.52
2018-01-16T10:32:11.439Z,980.56
2018-01-16T10:33:11.434Z,980.50
2018-01-16T10:34:11.427Z,980.57
2018-01-16T10:35:11.418Z,980.57
2018-01-16T10:36:11.411Z,980.52
2018-01-16T10:37:11.405Z,980.48
2018-01-16T10:38:11.398Z,980.59
2018-01-16T10:39:11.389Z,980.71
2018-01-16T10:40:11.382Z,980.59
2018-01-16T10:41:11.375Z,980.75
2018-01-16T10:42:11.370Z,980.71
2018-01-16T10:43:11.361Z,980.68
2018-01-16T10:44:11.355Z,980.65
2018-01-16T10:45:11.347Z,980.69
2018-01-16T10:46:11.341Z,980.64
2018-01-16T10:47:11.332Z,980.79
2018-01-16T10:48:11.327Z,980.71
2018-01-16T10:49:11.318Z,980.83
2018-01-16T10:50:11.313Z,980.84
2018-01-16T10:51:11.306Z,980.71
2018-01-16T10:52:11.298Z,980.77
2018-01-16T10:53:11.292Z,980.82
2018-01-16T10:54:11.284Z,980.77
2018-01-16T10:55:11.318Z,980.84
2018-01-16T10:56:11.270Z,980.76
2018-01-16T10:57:11.263Z,980.74
2018-01-16T10:58:11.257Z,980.78
2018-01-16T10:59:11.250Z,980.78
2018-01-16T11:00:11.243Z,980.78
2018-01-16T11:01:11.238Z,980.79
2018-01-16T11:02:11.230Z,980.84
2018-01-16T11:03:11.223Z,980.85
2018-01-16T11:04:11.218Z,980.92
2018-01-16T11:05:11.210Z,980.97
2018-01-16T11:06:11.204Z,980.93
2018-01-16T11:07:11.196Z,980.98
2018-01-16T11:08:11.191Z,981.00
2018-01-16T11:09:11.183Z,981.01
2018-01-16T11:10:11.176Z,981.02
2018-01-16T11:11:11.171Z,980.99
2018-01-16T11:12:11.165Z,981.08
2018-01-16T11:13:11.158Z,981.07
2018-01-16T11:14:11.158Z,981.11
2018-01-16T11:15:11.143Z,981.19
2018-01-16T11:16:11.138Z,981.11
2018-01-16T11:17:11.132Z,981.10
2018-01-16T11:18:11.125Z,981.07
2018-01-16T11:19:11.118Z,981.04
2018-01-16T11:20:11.112Z,981.15
2018-01-16T11:21:11.106Z,981.07
2018-01-16T11:22:11.101Z,981.01
2018-01-16T11:23:11.093Z,981.07
2018-01-16T11:24:11.087Z,981.01
2018-01-16T11:25:11.080Z,981.04
2018-01-16T11:26:11.075Z,981.01
2018-01-16T11:27:11.069Z,980.98
2018-01-16T11:28:11.064Z,981.10
2018-01-16T11:29:11.057Z,981.06
2018-01-16T11:30:11.053Z,981.15
2018-01-16T11:31:11.043Z,981.04
2018-01-16T11:32:11.038Z,981.01
2018-01-16T11:33:11.032Z,980.97
2018-01-16T11:34:11.027Z,980.97
2018-01-16T11:35:11.018Z,980.92
2018-01-16T11:36:11.013Z,981.17
2018-01-16T11:37:11.013Z,981.09
2018-01-16T11:38:11.001Z,981.12
2018-01-16T11:39:10.994Z,981.19
2018-01-16T11:40:10.989Z,981.14
2018-01-16T11:41:10.982Z,981.16
2018-01-16T11:42:10.977Z,981.11
2018-01-16T11:43:10.970Z,981.13
2018-01-16T11:44:10.964Z,981.10
2018-01-16T11:45:10.958Z,981.17
2018-01-16T11:46:10.955Z,981.12
2018-01-16T11:47:10.947Z,981.18
2018-01-16T11:48:10.940Z,981.16
2018-01-16T11:49:10.936Z,981.19
2018-01-16T11:50:10.930Z,981.20
2018-01-16T11:51:10.922Z,981.22
2018-01-16T11:52:10.917Z,981.27
2018-01-16T11:53:10.911Z,981.23
2018-01-16T11:54:10.906Z,981.32
2018-01-16T11:55:10.899Z,981.31
2018-01-16T11:56:10.894Z,981.31
2018-01-16T11:57:10.885Z,981.28
2018-01-16T11:58:10.880Z,981.32
2018-01-16T11:59:10.878Z,981.26
2018-01-16T12:00:10.867Z,981.33
2018-01-16T12:01:10.861Z,981.34
2018-01-16T12:02:10.856Z,981.19
2018-01-16T12:03:10.848Z,981.18
2018-01-16T12:04:10.842Z,981.28
2018-01-16T12:05:10.837Z,981.21
2018-01-16T12:06:10.831Z,981.25
2018-01-16T12:07:10.824Z,981.23
2018-01-16T12:08:10.820Z,981.25
2018-01-16T12:09:10.813Z,981.27
2018-01-16T12:10:10.809Z,981.22
2018-01-16T12:11:10.802Z,981.23
2018-01-16T12:12:10.795Z,981.20
2018-01-16T12:13:10.790Z,981.23
2018-01-16T12:14:10.786Z,981.23
2018-01-16T12:15:10.780Z,981.32
2018-01-16T12:16:10.773Z,981.29
2018-01-16T12:17:10.767Z,981.26
2018-01-16T12:18:10.761Z,981.22
2018-01-16T12:19:10.756Z,981.27
2018-01-16T12:20:10.749Z,981.28
2018-01-16T12:21:10.745Z,981.23
2018-01-16T12:22:10.739Z,981.24
2018-01-16T12:23:10.731Z,981.28
2018-01-16T12:24:10.731Z,981.20
2018-01-16T12:25:10.720Z,981.28
2018-01-16T12:26:10.715Z,981.35
2018-01-16T12:27:10.709Z,981.27
2018-01-16T12:28:10.703Z,981.27